LIEE/CAG METAR and TAF weather

Enter ICAO airport designator
Station Type Date Time Source
LIEE METAR 2020/11/28 19:50 UTC NOAA

LIEE 281950Z 36005KT 9999 -RA NSC 12/12 Q1002


Station Type Date Time Source
LIEE Decoded METAR 2020/11/28 19:50 UTC NOAA

Cagliari / Elmas, Italy (LIEE) 39-15N 009-04E 5M
Nov 28, 2020 - 02:50 PM EST / 2020.11.28 1950 UTC
Wind: from the N (360 degrees) at 6 MPH (5 KT):0
Visibility: greater than 7 mile(s):0
Weather: light rain
Temperature: 53 F (12 C)
Dew Point: 53 F (12 C)
Relative Humidity: 100%
Pressure (altimeter): 29.59 in. Hg (1002 hPa)
ob: LIEE 281950Z 36005KT 9999 -RA NSC 12/12 Q1002
cycle: 20

Station Type Date Time Source
LIEE TAF 2020/11/28 19:12 UTC NOAA

TAF
AMD TAF
AMD LIEE 281909Z 2819/2918 TAF LIEE 281700Z 2818/2918 VRB05KT 9999 SCT030
BECMG 2906/2908 30010KT
TEMPO 2906/2912 RA

Example: see airport list